Ana Sayfa
METAR-TAF:

METAR-TAF

Havaalanları :

Shenzhen Bao'an Uluslararası Havalimanı

Shenzhen, Çin

Enlem: 22-33N, Boylam: 114-06E, yükseklik: 18 m

Güncel hava durumu gözlemi

Rapor saat 10:00 UTC de 1 saat ve 4 dakika önce yapıldı.
Rüzgar güney/güneydoğudan 12 kt
Sıcaklık 29°C
Nem 89%
Basınç 1004 hPa
Görüş mesafesi 10 km veya daha fazla
2000 ft yükseklikte az bulutlu

METAR: ZGSZ 181000Z 16006MPS 9999 FEW020 29/27 Q1004 NOSIG

Saat: 19:04 (11:04 UTC)

Tahmin

Rapor saat 03:05 UTC de 7 saat ve 59 dakika önce yapıldı.
Ayın 18'si saat 06 UTC'den ayın 19'si saat 06 UTC'ye kadar geçerli Tahmin
Rüzgar güneydan 12 kt
Görüş mesafesi: 8000 m
3000 ft yükseklikte parçalı bulutlu
Geçici
ayın 18'si saat 06 UTC'den ayın 18'si saat 09 UTC'ye kadar
2000 ft yükseklikte parçalı bulutlu
3000 ft yükseklikte az bulutlu, Kümülonimbus.
sağanak yağmurlar,

TAF: ZGSZ 180305Z 1806/1906 17006MPS 8000 SCT030 TX32/1906Z TN28/1822Z TEMPO 1806/1809 SHRA SCT020 FEW030CB

4.000'den fazla havaalanı için hava durumu gözlemleri ve tahminleri (METAR ve TAF raporları).

Kullanılabilir istasyonlar harita üzerinde sarı ve kırmızı noktalarla gösterilir.

İstasyonun adını görmek için fareyi noktanın üzerinde gezdirin.

Sonrasında hava gözlem ve tahminlerini görmek için tıklayın.

Haritayı değiştirmek için: yaklaştırmak için siyah artı işaretli yeşil düğmeye ve uzaklaştırmak için de eksi işaretli düğmeye hızla tıklayın; bitişik haritalar için yeşil okları kullanın.


METAR-TAF: